Time;durP1;ratioP1;P1;durP2;ratioP2;P2;SDS_P1;SDS_P2;PMS_P1;PMS_P2;Temp;Humidity;BMP_temperature;BMP_pressure;BME280_temperature;BME280_humidity;BME280_pressure;Samples;Min_cycle;Max_cycle;Signal;HPM_P1;HPM_P2
2023/07/31 00:00:44;;;;;;;3.57;1.73;;;11.30;99.90;;;;;;2069639;28;20240;-82
2023/07/31 00:01:45;;;;;;;3.97;2.00;;;11.30;99.90;;;;;;2068659;28;20236;-83
2023/07/31 00:02:45;;;;;;;4.33;1.90;;;11.40;99.90;;;;;;2056913;28;20262;-82
2023/07/31 00:03:46;;;;;;;3.13;1.73;;;11.20;99.90;;;;;;2057982;28;20658;-83
2023/07/31 00:04:48;;;;;;;3.47;1.92;;;11.30;99.90;;;;;;2066283;28;20220;-83
2023/07/31 00:05:49;;;;;;;3.42;1.90;;;11.20;99.90;;;;;;2050024;28;20265;-84
2023/07/31 00:06:50;;;;;;;4.80;2.30;;;11.00;99.90;;;;;;2056690;28;20238;-83
2023/07/31 00:07:51;;;;;;;2.77;2.13;;;10.80;99.90;;;;;;2057949;28;20248;-83
2023/07/31 00:08:51;;;;;;;5.73;2.20;;;10.70;99.90;;;;;;2058271;28;20233;-83
2023/07/31 00:09:53;;;;;;;2.23;1.77;;;10.80;99.90;;;;;;2061693;28;20226;-83
2023/07/31 00:10:54;;;;;;;3.30;2.10;;;10.90;99.90;;;;;;2062801;28;20264;-83
2023/07/31 00:11:55;;;;;;;3.90;1.90;;;10.80;99.90;;;;;;2056633;28;20703;-84
2023/07/31 00:13:10;;;;;;;3.33;2.25;;;10.80;99.90;;;;;;2085845;27;20588;-65
2023/07/31 00:14:10;;;;;;;3.05;2.00;;;10.80;99.90;;;;;;2084253;28;20556;-65
2023/07/31 00:15:13;;;;;;;4.87;2.20;;;10.80;99.90;;;;;;2087909;28;20187;-65
2023/07/31 00:16:13;;;;;;;2.20;1.52;;;10.90;99.90;;;;;;2085991;28;20180;-65
2023/07/31 00:17:14;;;;;;;2.37;1.87;;;10.90;99.90;;;;;;2091664;28;20232;-65
2023/07/31 00:18:15;;;;;;;2.40;2.00;;;10.80;99.90;;;;;;2085846;28;20193;-65
2023/07/31 00:19:16;;;;;;;3.20;1.90;;;10.90;99.90;;;;;;2082582;28;20276;-65
2023/07/31 00:20:17;;;;;;;3.83;1.80;;;11.00;99.90;;;;;;2084671;28;20232;-65
2023/07/31 00:21:18;;;;;;;4.82;1.90;;;11.00;99.90;;;;;;2084754;28;20782;-65
2023/07/31 00:22:18;;;;;;;4.40;1.80;;;11.00;99.90;;;;;;2092099;28;20433;-65
2023/07/31 00:23:19;;;;;;;5.93;1.83;;;11.00;99.90;;;;;;2085552;28;20780;-65
2023/07/31 00:24:20;;;;;;;3.57;2.10;;;11.00;99.90;;;;;;2076638;28;20225;-65
2023/07/31 00:25:20;;;;;;;3.60;2.37;;;11.00;99.90;;;;;;2091630;28;20576;-65
2023/07/31 00:26:21;;;;;;;3.07;2.30;;;11.00;99.90;;;;;;2084201;28;20259;-65
2023/07/31 00:27:22;;;;;;;2.93;2.00;;;10.90;99.90;;;;;;2083899;28;20832;-65
2023/07/31 00:28:23;;;;;;;3.20;1.80;;;11.00;99.90;;;;;;2083871;28;20220;-66
2023/07/31 00:29:23;;;;;;;2.60;1.90;;;10.90;99.90;;;;;;2084083;28;20282;-67
2023/07/31 00:30:25;;;;;;;3.73;2.00;;;11.00;99.90;;;;;;2085616;28;20601;-66
2023/07/31 00:31:26;;;;;;;2.97;2.20;;;10.90;99.90;;;;;;2093352;28;20227;-66
2023/07/31 00:32:27;;;;;;;5.57;2.10;;;10.90;99.90;;;;;;2084241;28;20227;-66
2023/07/31 00:33:27;;;;;;;2.23;2.03;;;10.90;99.90;;;;;;2076529;28;20352;-66
2023/07/31 00:34:28;;;;;;;4.20;1.90;;;11.00;99.90;;;;;;2084753;28;20228;-66
2023/07/31 00:35:29;;;;;;;2.90;1.83;;;11.10;99.90;;;;;;2085627;28;20220;-66
2023/07/31 00:36:30;;;;;;;2.70;1.90;;;11.10;99.90;;;;;;2080081;28;20226;-66
2023/07/31 00:37:30;;;;;;;4.53;2.37;;;11.20;99.90;;;;;;2088765;28;20227;-66
2023/07/31 00:38:31;;;;;;;3.13;2.10;;;11.20;99.90;;;;;;2093051;28;20227;-66
2023/07/31 00:39:35;;;;;;;3.73;2.37;;;11.20;99.90;;;;;;2086663;28;20281;-66
2023/07/31 00:40:37;;;;;;;3.42;2.20;;;11.10;99.90;;;;;;2092821;28;20223;-66
2023/07/31 00:41:37;;;;;;;7.68;2.30;;;11.10;99.90;;;;;;2084947;28;20224;-66
2023/07/31 00:42:38;;;;;;;5.50;2.70;;;11.10;99.90;;;;;;2085001;28;20227;-66
2023/07/31 00:43:39;;;;;;;3.50;2.60;;;11.20;99.90;;;;;;2084966;28;20420;-66
2023/07/31 00:44:39;;;;;;;6.07;2.27;;;11.10;99.90;;;;;;2084632;28;20715;-66
2023/07/31 00:45:40;;;;;;;2.73;1.93;;;11.00;99.90;;;;;;2078575;28;20318;-66
2023/07/31 00:46:41;;;;;;;2.38;1.80;;;11.00;99.90;;;;;;2092949;28;20235;-66
2023/07/31 00:47:42;;;;;;;3.67;2.10;;;10.90;99.90;;;;;;2100860;28;20277;-67
2023/07/31 00:48:43;;;;;;;2.27;1.90;;;10.90;99.90;;;;;;2090468;28;20630;-65
2023/07/31 00:49:44;;;;;;;2.13;1.90;;;10.90;99.90;;;;;;2090923;28;20238;-65
2023/07/31 00:50:45;;;;;;;3.33;2.25;;;10.90;99.90;;;;;;2096725;28;20422;-65
2023/07/31 00:51:45;;;;;;;3.13;1.90;;;10.90;99.90;;;;;;2085967;28;20224;-65
2023/07/31 00:52:46;;;;;;;3.10;2.10;;;10.90;99.90;;;;;;2080698;28;20479;-66
2023/07/31 00:53:47;;;;;;;4.47;2.80;;;10.80;99.90;;;;;;2086840;28;20369;-66
2023/07/31 00:54:49;;;;;;;3.50;2.00;;;10.70;99.90;;;;;;2086195;28;20230;-66
2023/07/31 00:55:50;;;;;;;6.03;2.20;;;10.60;99.90;;;;;;2086180;28;20224;-66
2023/07/31 00:56:54;;;;;;;2.55;2.25;;;10.60;99.90;;;;;;2086321;28;20586;-66
2023/07/31 00:57:56;;;;;;;3.70;2.05;;;10.70;99.90;;;;;;2081283;28;20890;-66
2023/07/31 00:58:57;;;;;;;3.25;2.30;;;10.80;99.90;;;;;;2085250;28;20212;-66
2023/07/31 00:59:59;;;;;;;4.17;2.00;;;10.80;99.90;;;;;;2083959;28;20224;-66
2023/07/31 01:01:01;;;;;;;6.10;2.50;;;10.80;99.90;;;;;;2087204;28;20199;-67
2023/07/31 01:02:03;;;;;;;4.25;2.28;;;10.80;99.90;;;;;;2089565;28;20244;-67
2023/07/31 01:03:03;;;;;;;3.17;1.88;;;10.70;99.90;;;;;;2089235;28;20188;-67
2023/07/31 01:04:04;;;;;;;2.87;1.80;;;10.70;99.90;;;;;;2087276;28;20189;-67
2023/07/31 01:05:06;;;;;;;2.53;1.93;;;10.60;99.90;;;;;;2085887;28;20233;-67
2023/07/31 01:07:01;;;;;;;4.35;2.13;;;10.60;99.90;;;;;;2085748;28;20421;-67
2023/07/31 01:08:15;;;;;;;2.85;2.00;;;10.60;99.90;;;;;;2043146;28;20762;-67
2023/07/31 01:09:42;;;;;;;2.72;2.33;;;10.60;99.90;;;;;;2090097;28;20248;-67
2023/07/31 01:10:57;;;;;;;3.72;2.28;;;10.60;99.90;;;;;;2092381;28;20330;-67
2023/07/31 01:12:02;;;;;;;2.55;2.03;;;10.60;99.90;;;;;;2090074;28;20225;-67
2023/07/31 01:13:04;;;;;;;3.55;2.25;;;10.60;99.90;;;;;;2087489;28;20208;-67
2023/07/31 01:14:05;;;;;;;4.15;2.30;;;10.60;99.90;;;;;;2088722;28;20272;-67
2023/07/31 01:15:12;;;;;;;4.55;2.20;;;10.70;99.90;;;;;;2086569;28;20184;-67
2023/07/31 01:16:14;;;;;;;4.65;2.30;;;10.80;99.90;;;;;;2084985;28;20617;-67
2023/07/31 01:17:15;;;;;;;5.90;2.88;;;10.80;99.90;;;;;;2084962;28;20185;-67
2023/07/31 01:18:15;;;;;;;3.20;2.30;;;10.80;99.90;;;;;;2086696;28;20553;-67
2023/07/31 01:19:21;;;;;;;2.57;2.17;;;10.80;99.90;;;;;;2090036;28;20265;-67
2023/07/31 01:20:25;;;;;;;3.25;2.15;;;10.80;99.90;;;;;;2084488;28;20644;-67
2023/07/31 01:22:22;;;;;;;4.22;2.13;;;10.80;99.90;;;;;;2079597;28;20317;-67
2023/07/31 01:23:45;;;;;;;5.70;2.45;;;10.80;99.90;;;;;;2081428;28;20225;-67
2023/07/31 01:24:54;;;;;;;4.32;2.20;;;10.80;99.90;;;;;;2078827;28;20628;-67
2023/07/31 01:26:13;;;;;;;3.33;2.42;;;10.80;99.90;;;;;;2078193;28;20217;-67
2023/07/31 01:27:21;;;;;;;2.95;2.60;;;10.90;99.90;;;;;;2080755;28;20273;-67
2023/07/31 01:28:39;;;;;;;5.30;2.63;;;10.80;99.90;;;;;;2079385;28;20249;-67
2023/07/31 01:29:55;;;;;;;3.92;2.15;;;10.80;99.90;;;;;;2087921;28;20694;-67
2023/07/31 01:31:00;;;;;;;2.47;1.98;;;10.90;99.90;;;;;;2073378;28;20307;-67
2023/07/31 01:32:03;;;;;;;2.42;2.22;;;10.80;99.90;;;;;;2077958;28;20212;-67
2023/07/31 01:33:07;;;;;;;3.03;2.40;;;10.80;99.90;;;;;;2079322;28;20220;-67
2023/07/31 01:34:10;;;;;;;3.05;2.40;;;10.80;99.90;;;;;;2095788;28;20268;-67
2023/07/31 01:35:11;;;;;;;3.72;2.25;;;10.80;99.90;;;;;;2094913;28;20254;-67
2023/07/31 01:36:12;;;;;;;3.30;2.30;;;10.80;99.90;;;;;;2095190;28;20680;-67
2023/07/31 01:37:12;;;;;;;3.25;2.33;;;10.80;99.90;;;;;;2091144;28;20181;-67
2023/07/31 01:38:13;;;;;;;3.03;2.00;;;10.90;99.90;;;;;;2085984;28;20274;-67
2023/07/31 01:39:15;;;;;;;2.70;2.00;;;10.90;99.90;;;;;;2086338;28;20242;-67
2023/07/31 01:40:16;;;;;;;2.40;1.90;;;10.70;99.90;;;;;;2082684;28;20227;-67
2023/07/31 01:41:18;;;;;;;2.70;1.93;;;10.60;99.90;;;;;;2086850;28;20188;-67
2023/07/31 01:42:18;;;;;;;5.70;2.00;;;10.60;99.90;;;;;;2086953;28;20223;-67
2023/07/31 01:43:20;;;;;;;4.80;1.90;;;10.60;99.90;;;;;;2087210;28;20233;-66
2023/07/31 01:44:20;;;;;;;2.55;1.90;;;10.60;99.90;;;;;;2087066;28;20253;-67
2023/07/31 01:45:21;;;;;;;5.03;2.03;;;10.60;99.90;;;;;;2078483;28;20236;-67
2023/07/31 01:46:22;;;;;;;3.93;1.90;;;10.60;99.90;;;;;;2078385;28;20224;-67
2023/07/31 01:47:23;;;;;;;3.57;2.30;;;10.60;99.90;;;;;;2078086;28;20236;-67
2023/07/31 01:48:24;;;;;;;3.40;1.73;;;10.70;99.90;;;;;;2093289;28;20771;-67
2023/07/31 01:49:24;;;;;;;3.03;2.00;;;10.70;99.90;;;;;;2089365;28;20227;-66
2023/07/31 01:50:25;;;;;;;3.90;2.23;;;10.60;99.90;;;;;;2087860;28;20228;-67
2023/07/31 01:51:26;;;;;;;2.63;2.00;;;10.60;99.90;;;;;;2087272;28;20232;-67
2023/07/31 01:52:26;;;;;;;3.80;2.30;;;10.70;99.90;;;;;;2092249;28;20227;-67
2023/07/31 01:53:27;;;;;;;5.93;2.90;;;10.60;99.90;;;;;;2089395;28;20259;-67
2023/07/31 01:54:28;;;;;;;2.90;2.20;;;10.60;99.90;;;;;;2082705;28;20231;-67
2023/07/31 01:55:29;;;;;;;3.60;2.33;;;10.60;99.90;;;;;;2070587;28;20995;-67
2023/07/31 01:56:29;;;;;;;3.20;1.97;;;10.50;99.90;;;;;;2086831;28;20852;-67
2023/07/31 01:57:30;;;;;;;2.13;1.90;;;10.50;99.90;;;;;;2094892;28;20285;-67
2023/07/31 01:58:31;;;;;;;3.23;2.70;;;10.50;99.90;;;;;;2087153;28;20299;-67
2023/07/31 01:59:31;;;;;;;3.63;2.20;;;10.40;99.90;;;;;;2095383;28;20223;-67
2023/07/31 02:00:32;;;;;;;2.30;2.03;;;10.30;99.90;;;;;;2086397;28;20232;-67
2023/07/31 02:01:33;;;;;;;3.47;1.97;;;10.30;99.90;;;;;;2093300;28;20226;-67
2023/07/31 02:02:33;;;;;;;3.37;2.30;;;10.30;99.90;;;;;;2093009;28;20239;-67
2023/07/31 02:03:34;;;;;;;8.40;3.17;;;10.40;99.90;;;;;;2090168;28;20288;-67
2023/07/31 02:04:35;;;;;;;2.50;2.10;;;10.40;99.90;;;;;;2085747;28;20282;-67
2023/07/31 02:05:36;;;;;;;3.20;2.50;;;10.30;99.90;;;;;;2085606;28;20862;-67
2023/07/31 02:06:36;;;;;;;4.57;2.00;;;10.10;99.90;;;;;;2084715;28;20266;-67
2023/07/31 02:07:37;;;;;;;4.00;2.30;;;10.10;99.90;;;;;;2086349;28;20243;-67
2023/07/31 02:08:38;;;;;;;4.93;2.33;;;10.00;99.90;;;;;;2093158;28;20231;-67
2023/07/31 02:09:38;;;;;;;3.23;2.47;;;10.10;99.90;;;;;;2090663;28;20239;-66
2023/07/31 02:10:39;;;;;;;2.60;1.80;;;10.20;99.90;;;;;;2092847;28;20266;-67
2023/07/31 02:11:40;;;;;;;2.83;2.07;;;10.10;99.90;;;;;;2088237;28;20318;-67
2023/07/31 02:12:40;;;;;;;4.73;2.03;;;10.10;99.90;;;;;;2086377;28;20236;-66
2023/07/31 02:13:41;;;;;;;3.00;2.17;;;10.10;99.90;;;;;;2085786;28;20629;-67
2023/07/31 02:14:42;;;;;;;3.50;1.80;;;10.20;99.90;;;;;;2077918;28;20259;-67
2023/07/31 02:15:42;;;;;;;2.87;2.00;;;10.20;99.90;;;;;;2086237;28;20228;-67
2023/07/31 02:16:43;;;;;;;4.07;2.23;;;10.30;99.90;;;;;;2086087;28;20577;-67
2023/07/31 02:17:44;;;;;;;3.50;2.27;;;10.30;99.90;;;;;;2085240;28;20309;-67
2023/07/31 02:18:46;;;;;;;3.30;2.00;;;10.30;99.90;;;;;;2089283;28;20297;-67
2023/07/31 02:19:47;;;;;;;2.78;1.77;;;10.40;99.90;;;;;;2087010;28;20223;-67
2023/07/31 02:20:51;;;;;;;2.45;2.20;;;10.40;99.90;;;;;;2080194;28;20225;-67
2023/07/31 02:21:52;;;;;;;3.40;2.22;;;10.40;99.90;;;;;;2081416;28;20311;-67
2023/07/31 02:22:53;;;;;;;4.37;2.40;;;10.40;99.90;;;;;;2092118;28;20222;-67
2023/07/31 02:23:54;;;;;;;2.20;1.90;;;10.40;99.90;;;;;;2091389;28;20250;-66
2023/07/31 02:24:55;;;;;;;2.60;2.27;;;10.40;99.90;;;;;;2091089;28;20227;-67
2023/07/31 02:25:55;;;;;;;4.40;2.22;;;10.30;99.90;;;;;;2096759;28;20218;-67
2023/07/31 02:26:56;;;;;;;2.30;2.00;;;10.30;99.90;;;;;;2097728;28;20210;-67
2023/07/31 02:27:57;;;;;;;3.07;2.17;;;10.20;99.90;;;;;;2090621;28;20311;-67
2023/07/31 02:28:57;;;;;;;2.90;2.10;;;10.30;99.90;;;;;;2089217;28;20740;-67
2023/07/31 02:29:59;;;;;;;2.90;2.07;;;10.20;99.90;;;;;;2091040;28;20226;-67
2023/07/31 02:31:00;;;;;;;1.98;1.77;;;10.20;99.90;;;;;;2086954;28;20294;-66
2023/07/31 02:32:01;;;;;;;2.47;2.00;;;10.30;99.90;;;;;;2087691;28;20183;-67
2023/07/31 02:33:01;;;;;;;5.17;2.57;;;10.30;99.90;;;;;;2087188;28;20222;-66
2023/07/31 02:34:02;;;;;;;3.20;2.07;;;10.30;99.90;;;;;;2080823;28;20189;-67
2023/07/31 02:35:03;;;;;;;3.10;2.33;;;10.30;99.90;;;;;;2085208;28;20269;-67
2023/07/31 02:36:04;;;;;;;4.78;2.15;;;10.30;99.90;;;;;;2083520;28;20685;-68
2023/07/31 02:37:05;;;;;;;4.80;2.10;;;10.20;99.90;;;;;;2090600;28;20194;-67
2023/07/31 02:38:06;;;;;;;2.95;2.33;;;10.20;99.90;;;;;;2078241;28;20185;-66
2023/07/31 02:39:07;;;;;;;2.70;2.07;;;10.30;99.90;;;;;;2086175;28;20187;-67
2023/07/31 02:40:08;;;;;;;2.30;2.10;;;10.30;99.90;;;;;;2079503;28;20658;-67
2023/07/31 02:41:09;;;;;;;2.95;2.65;;;10.30;99.90;;;;;;2094032;28;20187;-67
2023/07/31 02:42:09;;;;;;;4.53;2.40;;;10.20;99.90;;;;;;2094609;28;20182;-66
2023/07/31 02:43:10;;;;;;;3.00;2.50;;;10.20;99.90;;;;;;2091361;28;20266;-66
2023/07/31 02:44:13;;;;;;;4.63;2.13;;;10.20;99.90;;;;;;2086669;28;20284;-67
2023/07/31 02:45:14;;;;;;;3.83;2.35;;;10.10;99.90;;;;;;2094588;28;20286;-66
2023/07/31 02:46:15;;;;;;;2.28;2.08;;;10.10;99.90;;;;;;2087641;28;20667;-66
2023/07/31 02:47:16;;;;;;;2.67;2.00;;;10.00;99.90;;;;;;2089286;28;20207;-67
2023/07/31 02:48:16;;;;;;;3.97;2.00;;;10.10;99.90;;;;;;2090205;28;20563;-66
2023/07/31 02:49:17;;;;;;;4.07;2.03;;;10.10;99.90;;;;;;2091308;28;20296;-66
2023/07/31 02:50:18;;;;;;;4.27;2.13;;;10.10;99.90;;;;;;2090246;28;20235;-66
2023/07/31 02:51:20;;;;;;;3.13;2.30;;;10.10;99.90;;;;;;2091817;28;20243;-67
2023/07/31 02:52:21;;;;;;;2.53;2.20;;;9.90;99.90;;;;;;2087366;28;20256;-66
2023/07/31 02:53:22;;;;;;;3.67;2.33;;;9.80;99.90;;;;;;2090992;28;20705;-66
2023/07/31 02:54:23;;;;;;;3.63;2.03;;;9.70;99.90;;;;;;2087466;28;20601;-66
2023/07/31 02:55:24;;;;;;;2.15;1.52;;;9.70;99.90;;;;;;2082509;28;20323;-66
2023/07/31 02:56:25;;;;;;;2.90;1.90;;;9.80;99.90;;;;;;2078106;28;20302;-67
2023/07/31 02:57:26;;;;;;;6.60;2.20;;;9.90;99.90;;;;;;2076635;28;20253;-67
2023/07/31 02:58:27;;;;;;;2.17;1.80;;;9.90;99.90;;;;;;2082399;28;20722;-66
2023/07/31 02:59:29;;;;;;;2.43;2.13;;;10.00;99.90;;;;;;2091249;28;20241;-66
2023/07/31 03:00:29;;;;;;;4.75;2.00;;;9.90;99.90;;;;;;2091403;28;20568;-66
2023/07/31 03:01:31;;;;;;;5.93;2.73;;;9.90;99.90;;;;;;2086692;28;20262;-66
2023/07/31 03:02:32;;;;;;;4.45;2.22;;;10.00;99.90;;;;;;2086337;28;20240;-66
2023/07/31 03:03:33;;;;;;;2.63;1.70;;;10.00;99.90;;;;;;2087007;28;20247;-66
2023/07/31 03:04:34;;;;;;;3.03;2.30;;;9.90;99.90;;;;;;2087545;28;20310;-66
2023/07/31 03:05:34;;;;;;;3.50;2.10;;;9.90;99.90;;;;;;2087401;28;20223;-66
2023/07/31 03:06:35;;;;;;;2.50;2.30;;;10.00;99.90;;;;;;2086724;28;20228;-66
2023/07/31 03:07:36;;;;;;;3.37;2.33;;;10.00;99.90;;;;;;2085725;28;20231;-66
2023/07/31 03:08:36;;;;;;;4.53;2.73;;;10.00;99.90;;;;;;2079073;28;20282;-66
2023/07/31 03:09:37;;;;;;;2.97;2.47;;;10.00;99.90;;;;;;2082394;28;20228;-66
2023/07/31 03:10:38;;;;;;;4.70;2.10;;;10.00;99.90;;;;;;2090422;28;20320;-66
2023/07/31 03:11:38;;;;;;;4.63;2.23;;;10.00;99.90;;;;;;2090892;28;20230;-66
2023/07/31 03:12:40;;;;;;;3.60;2.10;;;10.00;99.90;;;;;;2090799;28;20708;-66
2023/07/31 03:13:41;;;;;;;3.67;2.10;;;9.90;99.90;;;;;;2087650;28;20282;-66
2023/07/31 03:14:42;;;;;;;7.07;3.13;;;9.90;99.90;;;;;;2090675;28;20230;-66
2023/07/31 03:15:43;;;;;;;3.05;2.60;;;10.00;99.90;;;;;;2090323;28;20233;-66
2023/07/31 03:16:44;;;;;;;5.45;3.03;;;10.00;99.90;;;;;;2090441;28;20449;-67
2023/07/31 03:17:45;;;;;;;3.47;2.43;;;10.00;99.90;;;;;;2090655;28;20235;-66
2023/07/31 03:18:45;;;;;;;3.05;2.20;;;10.10;99.90;;;;;;2090792;28;20285;-66
2023/07/31 03:19:46;;;;;;;3.57;2.47;;;10.10;99.90;;;;;;2090883;28;20734;-66
2023/07/31 03:20:47;;;;;;;4.63;2.70;;;10.10;99.90;;;;;;2090520;28;20266;-66
2023/07/31 03:21:48;;;;;;;3.00;2.60;;;10.10;99.90;;;;;;2099562;28;20693;-66
2023/07/31 03:22:49;;;;;;;2.93;2.30;;;10.10;99.90;;;;;;2084323;28;20894;-66
2023/07/31 03:23:49;;;;;;;3.38;2.78;;;10.20;99.90;;;;;;2088287;28;20736;-66
2023/07/31 03:24:50;;;;;;;3.60;2.80;;;10.20;99.90;;;;;;2088510;28;20218;-66
2023/07/31 03:26:05;;;;;;;3.53;2.47;;;10.30;99.90;;;;;;2086395;28;20749;-66
2023/07/31 03:27:06;;;;;;;3.28;2.65;;;10.30;99.90;;;;;;2083293;28;20222;-66
2023/07/31 03:28:07;;;;;;;3.50;2.33;;;10.40;99.90;;;;;;2078002;28;20798;-67
2023/07/31 03:29:08;;;;;;;3.23;2.10;;;10.50;99.90;;;;;;2079750;28;20192;-67
2023/07/31 03:30:10;;;;;;;2.25;2.05;;;10.50;99.90;;;;;;2077941;28;20279;-67
2023/07/31 03:31:11;;;;;;;4.85;2.20;;;10.50;99.90;;;;;;2070190;28;20607;-67
2023/07/31 03:32:12;;;;;;;4.15;2.05;;;10.50;99.90;;;;;;2079536;28;20268;-67
2023/07/31 03:33:12;;;;;;;4.10;2.03;;;10.50;99.90;;;;;;2080208;28;20212;-67
2023/07/31 03:34:13;;;;;;;2.73;2.20;;;10.60;99.90;;;;;;2079204;28;20185;-67
2023/07/31 03:35:14;;;;;;;4.43;2.33;;;10.60;99.90;;;;;;2077803;28;20228;-67
2023/07/31 03:36:14;;;;;;;4.23;2.20;;;10.50;99.90;;;;;;2070085;28;20192;-66
2023/07/31 03:37:15;;;;;;;2.50;2.30;;;10.60;99.90;;;;;;2077609;28;20185;-67
2023/07/31 03:38:16;;;;;;;3.87;2.43;;;10.60;99.90;;;;;;2069517;28;20199;-67
2023/07/31 03:39:16;;;;;;;2.90;2.40;;;10.60;99.90;;;;;;2070030;28;20229;-67
2023/07/31 03:40:17;;;;;;;6.03;2.80;;;10.60;99.90;;;;;;2081829;28;20239;-69
2023/07/31 03:41:18;;;;;;;2.80;2.20;;;10.50;99.90;;;;;;2070391;28;20295;-65
2023/07/31 03:42:19;;;;;;;2.30;2.10;;;10.50;99.90;;;;;;2079639;28;20243;-65
2023/07/31 03:43:20;;;;;;;3.80;2.43;;;10.50;99.90;;;;;;2080665;28;20224;-65
2023/07/31 03:44:20;;;;;;;3.20;2.55;;;10.50;99.90;;;;;;2084093;28;20697;-66
2023/07/31 03:45:21;;;;;;;4.17;2.23;;;10.40;99.90;;;;;;2079950;28;20229;-67
2023/07/31 03:46:24;;;;;;;3.30;2.60;;;10.40;99.90;;;;;;2079029;28;20671;-67
2023/07/31 03:47:24;;;;;;;5.35;2.72;;;10.50;99.90;;;;;;2077297;28;20251;-67
2023/07/31 03:48:26;;;;;;;3.20;2.50;;;10.50;99.90;;;;;;2069817;28;20371;-67
2023/07/31 03:49:26;;;;;;;2.92;2.45;;;10.60;99.90;;;;;;2080167;28;20254;-67
2023/07/31 03:50:27;;;;;;;4.77;2.50;;;10.70;99.90;;;;;;2082589;28;20223;-67
2023/07/31 03:51:28;;;;;;;3.93;2.70;;;10.60;99.90;;;;;;2069428;28;20316;-65
2023/07/31 03:52:28;;;;;;;3.30;2.60;;;10.50;99.90;;;;;;2085521;28;20292;-66
2023/07/31 03:53:29;;;;;;;4.23;2.63;;;10.60;99.90;;;;;;2069710;28;20727;-67
2023/07/31 03:54:30;;;;;;;4.37;2.73;;;10.50;99.90;;;;;;2075160;28;20229;-67
2023/07/31 03:55:30;;;;;;;3.83;2.13;;;10.60;99.90;;;;;;2078756;28;20217;-65
2023/07/31 03:56:31;;;;;;;3.60;2.47;;;10.60;99.90;;;;;;2084820;28;20320;-65
2023/07/31 03:57:32;;;;;;;4.53;2.50;;;10.50;99.90;;;;;;2069385;28;20291;-67
2023/07/31 03:58:33;;;;;;;2.42;2.20;;;10.50;99.90;;;;;;2075539;28;20599;-67
2023/07/31 03:59:33;;;;;;;3.00;2.03;;;10.40;99.90;;;;;;2078502;28;20327;-67
2023/07/31 04:00:34;;;;;;;4.47;2.30;;;10.40;99.90;;;;;;2078415;28;20243;-67
2023/07/31 04:01:35;;;;;;;3.07;2.10;;;10.40;99.90;;;;;;2074949;28;20570;-67
2023/07/31 04:02:36;;;;;;;4.17;2.47;;;10.40;99.90;;;;;;2084173;28;20224;-67
2023/07/31 04:03:36;;;;;;;3.10;2.00;;;10.50;99.90;;;;;;2074522;28;20228;-67
2023/07/31 04:04:37;;;;;;;2.77;2.27;;;10.60;99.90;;;;;;2076338;28;20260;-67
2023/07/31 04:05:39;;;;;;;3.00;2.33;;;10.60;99.90;;;;;;2067380;28;20234;-67
2023/07/31 04:06:40;;;;;;;5.25;2.60;;;10.60;99.90;;;;;;2066449;28;20229;-67
2023/07/31 04:07:41;;;;;;;3.13;2.27;;;10.60;99.90;;;;;;2077335;28;20254;-66
2023/07/31 04:08:41;;;;;;;5.60;3.00;;;10.60;99.90;;;;;;2085739;28;20223;-67
2023/07/31 04:09:42;;;;;;;3.57;2.27;;;10.60;99.90;;;;;;2085916;28;20310;-66
2023/07/31 04:10:43;;;;;;;4.07;2.53;;;10.60;99.90;;;;;;2084999;28;20252;-66
2023/07/31 04:11:43;;;;;;;5.47;3.10;;;10.70;99.90;;;;;;2088311;28;20262;-67
2023/07/31 04:12:44;;;;;;;2.67;2.33;;;10.70;99.90;;;;;;2083451;28;20235;-66
2023/07/31 04:13:45;;;;;;;4.07;2.87;;;10.70;99.90;;;;;;2069504;28;20279;-67
2023/07/31 04:14:45;;;;;;;3.90;2.40;;;10.70;99.90;;;;;;2069924;28;20221;-67
2023/07/31 04:15:54;;;;;;;5.27;2.40;;;10.70;99.90;;;;;;2088559;28;20295;-67
2023/07/31 04:16:55;;;;;;;2.97;2.40;;;10.60;99.90;;;;;;2094190;28;20223;-67
2023/07/31 04:17:55;;;;;;;3.13;2.15;;;10.60;99.90;;;;;;2094480;28;20234;-67
2023/07/31 04:18:58;;;;;;;3.57;2.40;;;10.60;99.90;;;;;;2089481;28;20306;-67
2023/07/31 04:19:58;;;;;;;6.57;2.50;;;10.60;99.90;;;;;;2084983;28;20442;-67
2023/07/31 04:21:01;;;;;;;2.00;1.80;;;10.60;99.90;;;;;;2077924;28;20192;-66
2023/07/31 04:22:01;;;;;;;5.07;2.40;;;10.70;99.90;;;;;;2069601;28;20196;-67
2023/07/31 04:23:02;;;;;;;4.00;2.40;;;10.80;99.90;;;;;;2077669;28;20243;-67
2023/07/31 04:24:03;;;;;;;4.53;2.43;;;10.90;99.90;;;;;;2085786;28;20183;-66
2023/07/31 04:25:04;;;;;;;6.90;2.30;;;11.00;99.90;;;;;;2086377;28;20745;-67
2023/07/31 04:26:08;;;;;;;3.42;2.00;;;11.00;99.90;;;;;;2091611;28;20192;-67
2023/07/31 04:27:08;;;;;;;3.50;2.53;;;11.00;99.90;;;;;;2079924;28;20244;-67
2023/07/31 04:28:09;;;;;;;2.90;2.60;;;11.10;99.90;;;;;;2077478;28;20193;-67
2023/07/31 04:29:10;;;;;;;3.30;2.17;;;11.20;99.90;;;;;;2081573;28;20221;-67
2023/07/31 04:30:11;;;;;;;4.30;3.17;;;11.20;99.90;;;;;;2082265;28;20180;-67
2023/07/31 04:31:11;;;;;;;3.00;2.43;;;11.40;99.90;;;;;;2078229;28;20187;-67
2023/07/31 04:32:12;;;;;;;4.63;2.70;;;11.50;99.90;;;;;;2071478;28;20213;-67
2023/07/31 04:33:13;;;;;;;4.03;2.30;;;11.70;99.90;;;;;;2081887;28;20249;-66
2023/07/31 04:34:14;;;;;;;3.47;2.27;;;11.70;99.90;;;;;;2088105;28;20253;-65
2023/07/31 04:35:14;;;;;;;5.17;2.40;;;11.80;99.90;;;;;;2083170;28;20375;-66
2023/07/31 04:36:15;;;;;;;3.97;2.43;;;11.70;99.90;;;;;;2090261;28;20187;-65
2023/07/31 04:37:16;;;;;;;3.70;2.23;;;11.60;99.90;;;;;;2092383;28;20199;-65
2023/07/31 04:38:17;;;;;;;4.97;2.10;;;11.60;99.90;;;;;;2091770;28;20279;-65
2023/07/31 04:39:17;;;;;;;3.67;2.03;;;11.70;99.90;;;;;;2094368;28;20244;-65
2023/07/31 04:40:18;;;;;;;3.30;2.00;;;11.70;99.90;;;;;;2086208;28;20224;-65
2023/07/31 04:41:19;;;;;;;2.97;2.20;;;11.80;99.90;;;;;;2085861;28;20918;-65
2023/07/31 04:42:19;;;;;;;3.00;2.30;;;11.90;99.90;;;;;;2077071;28;20737;-65
2023/07/31 04:43:20;;;;;;;3.40;1.97;;;12.00;99.90;;;;;;2077566;28;20247;-65
2023/07/31 04:44:21;;;;;;;9.03;2.03;;;12.00;99.90;;;;;;2084843;28;20258;-66
2023/07/31 04:45:22;;;;;;;2.58;2.10;;;12.00;99.90;;;;;;2085882;28;20232;-65
2023/07/31 04:46:22;;;;;;;3.00;2.20;;;12.10;99.90;;;;;;2077334;28;20229;-65
2023/07/31 04:47:23;;;;;;;3.37;2.10;;;11.90;99.90;;;;;;2069851;28;20230;-66
2023/07/31 04:48:24;;;;;;;1.87;1.60;;;11.90;99.90;;;;;;2077800;28;20323;-66
2023/07/31 04:49:24;;;;;;;2.90;2.07;;;12.00;99.90;;;;;;2082617;28;20758;-66
2023/07/31 04:50:25;;;;;;;5.97;2.00;;;12.00;99.90;;;;;;2091480;28;20282;-66
2023/07/31 04:51:26;;;;;;;3.90;1.93;;;12.00;99.90;;;;;;2080568;28;20227;-65
2023/07/31 04:52:27;;;;;;;2.70;2.00;;;12.10;99.90;;;;;;2078127;28;20658;-65
2023/07/31 04:53:27;;;;;;;4.00;2.10;;;12.20;99.90;;;;;;2082007;28;20228;-65
2023/07/31 04:54:28;;;;;;;3.87;2.00;;;12.20;99.90;;;;;;2083112;28;20228;-66
2023/07/31 04:55:29;;;;;;;2.00;1.70;;;12.10;99.90;;;;;;2077645;28;20224;-65
2023/07/31 04:56:30;;;;;;;2.78;2.00;;;12.20;99.90;;;;;;2085085;28;20648;-65
2023/07/31 04:57:30;;;;;;;2.43;1.83;;;12.40;99.90;;;;;;2081941;28;20267;-66
2023/07/31 04:58:31;;;;;;;3.80;2.47;;;12.40;99.90;;;;;;2084107;28;20224;-66
2023/07/31 04:59:32;;;;;;;3.10;2.00;;;12.40;99.90;;;;;;2079090;28;20227;-66
2023/07/31 05:00:33;;;;;;;3.30;1.90;;;12.50;99.90;;;;;;2091190;28;20250;-66
2023/07/31 05:01:33;;;;;;;4.33;1.73;;;12.50;99.90;;;;;;2080514;28;20217;-66
2023/07/31 05:02:34;;;;;;;2.10;1.90;;;12.60;99.90;;;;;;2085882;28;20232;-66
2023/07/31 05:03:35;;;;;;;4.03;2.00;;;12.70;99.90;;;;;;2079910;28;20316;-66
2023/07/31 05:04:35;;;;;;;4.03;2.23;;;12.70;99.90;;;;;;2079006;28;20264;-66
2023/07/31 05:05:36;;;;;;;3.63;1.93;;;12.70;99.90;;;;;;2083241;28;20254;-66
2023/07/31 05:06:37;;;;;;;2.63;1.87;;;12.70;99.90;;;;;;2094152;28;20745;-66
2023/07/31 05:07:38;;;;;;;3.30;1.90;;;12.80;99.90;;;;;;2090439;28;20235;-66
2023/07/31 05:08:39;;;;;;;2.58;2.05;;;12.80;99.90;;;;;;2085441;28;20239;-66
2023/07/31 05:09:40;;;;;;;3.95;2.65;;;12.90;99.90;;;;;;2091077;28;20227;-66
2023/07/31 05:10:41;;;;;;;3.00;2.00;;;12.90;99.90;;;;;;2092785;28;20324;-67
2023/07/31 05:11:42;;;;;;;3.33;1.90;;;12.90;99.90;;;;;;2093847;28;20307;-66
2023/07/31 05:12:43;;;;;;;3.08;1.98;;;12.70;99.90;;;;;;2093770;28;20733;-66
2023/07/31 05:13:44;;;;;;;4.00;1.90;;;12.60;99.90;;;;;;2090334;28;20235;-66
2023/07/31 05:14:44;;;;;;;2.13;1.90;;;12.60;99.90;;;;;;2088314;28;20315;-66
2023/07/31 05:15:45;;;;;;;2.20;1.93;;;12.70;99.90;;;;;;2102888;28;20237;-66
2023/07/31 05:16:46;;;;;;;1.83;1.63;;;12.80;99.90;;;;;;2100555;28;20226;-66
2023/07/31 05:17:47;;;;;;;3.30;1.70;;;12.70;99.90;;;;;;2089647;28;20335;-66
2023/07/31 05:18:47;;;;;;;2.57;2.00;;;12.70;99.90;;;;;;2091203;28;20275;-66
2023/07/31 05:19:48;;;;;;;2.13;1.67;;;12.50;99.90;;;;;;2091414;28;20698;-66
2023/07/31 05:20:49;;;;;;;2.37;1.70;;;12.50;99.90;;;;;;2081750;28;20216;-66
2023/07/31 05:21:50;;;;;;;2.43;2.00;;;12.60;99.90;;;;;;2090647;28;20252;-66
2023/07/31 05:22:51;;;;;;;4.07;1.90;;;12.60;99.90;;;;;;2093520;28;20232;-67